Terminal Aerodrome Forecast
Issued by NWS Denver/Boulder, CO

Home | Current Version | Previous Version | Text Only | Print | Product List | Glossary On
Versions: 1 2 3 4 5 6 7 8 9 10 11 12 13 14 15 16 17 18 19 20 21 22 23 24 25 26 27 28 29 30 31 32 33
000
FTUS45 KBOU 202338
TAFDEN
TAF
KDEN 202338Z 2100/2206 15016G24KT P6SM -RA SCT015 BKN025 OVC035
     FM210300 08012KT 4SM -RASN BR SCT006 OVC012
     FM210600 01010KT 2SM -SN BR OVC004
      TEMPO 2106/2110 3/4SM -SN BR OVC002
     FM211400 34008KT 3SM -RASN SCT006 OVC012
     FM212100 04008KT P6SM SCT015 BKN025
     FM220200 16010KT P6SM SCT025 SCT050 BKN100=

USA.gov is the U.S. government's official web portal to all federal, state and local government web resources and services.